Weather at Ambri Airport

Public forecast

Using degrees Celsius for public forecast. Weather courtesy of forecast.io.

Closest aviation weather report (METAR) to Ambri Airport

Closest report is Locarno Airport, 22.5 nm (41.7 km) SSE. Retrieved 2021/03/08 08:20 UTC (53 minutes ago):

LSZL 080820Z VRB02KT CAVOK 05/01 Q1018 RMK BLU

Closest aviation forecast (TAF) to Ambri Airport

Closest forecast is Meiringen Airport, 27.6 nm (51.2 km) WNW. Retrieved 2021/03/08 10:00 UTC (0 seconds ago):

TAF LSMM 080925Z 0810/0916 06010KT 9999 FEW013 BKN023 TEMPO 0810/0812 VRB02KT 4000 -DZ PROB40 0818/0905 CAVOK PROB40 0905/0910 4000 BR BKN014 PROB30 0905/0908 2000 BCFG VV005